sensor_id;sensor_type;location;lat;lon;timestamp;P1;durP1;ratioP1;P2;durP2;ratioP2
53775;SDS011;44276;49.534;6.378;2023-05-13T00:02:18;5.63;;;4.40;;
53775;SDS011;44276;49.534;6.378;2023-05-13T00:04:46;7.38;;;4.85;;
53775;SDS011;44276;49.534;6.378;2023-05-13T00:07:14;8.45;;;4.47;;
53775;SDS011;44276;49.534;6.378;2023-05-13T00:09:42;5.30;;;3.88;;
53775;SDS011;44276;49.534;6.378;2023-05-13T00:12:10;6.70;;;4.88;;
53775;SDS011;44276;49.534;6.378;2023-05-13T00:14:38;6.88;;;4.43;;
53775;SDS011;44276;49.534;6.378;2023-05-13T00:17:08;6.93;;;5.20;;
53775;SDS011;44276;49.534;6.378;2023-05-13T00:19:36;8.73;;;4.38;;
53775;SDS011;44276;49.534;6.378;2023-05-13T00:22:04;9.45;;;4.85;;
53775;SDS011;44276;49.534;6.378;2023-05-13T00:24:32;10.00;;;5.78;;
53775;SDS011;44276;49.534;6.378;2023-05-13T00:27:01;11.93;;;5.68;;
53775;SDS011;44276;49.534;6.378;2023-05-13T00:29:29;8.85;;;6.28;;
53775;SDS011;44276;49.534;6.378;2023-05-13T00:31:57;9.18;;;6.30;;
53775;SDS011;44276;49.534;6.378;2023-05-13T00:34:27;12.70;;;6.35;;
53775;SDS011;44276;49.534;6.378;2023-05-13T00:36:55;7.93;;;6.38;;
53775;SDS011;44276;49.534;6.378;2023-05-13T00:39:23;9.55;;;6.03;;
53775;SDS011;44276;49.534;6.378;2023-05-13T00:41:51;10.80;;;5.93;;
53775;SDS011;44276;49.534;6.378;2023-05-13T00:44:19;9.00;;;6.20;;
53775;SDS011;44276;49.534;6.378;2023-05-13T00:46:48;10.55;;;6.55;;
53775;SDS011;44276;49.534;6.378;2023-05-13T00:49:16;13.10;;;6.65;;
53775;SDS011;44276;49.534;6.378;2023-05-13T00:51:46;11.80;;;7.57;;
53775;SDS011;44276;49.534;6.378;2023-05-13T00:54:15;16.55;;;7.95;;
53775;SDS011;44276;49.534;6.378;2023-05-13T00:56:43;13.80;;;8.88;;
53775;SDS011;44276;49.534;6.378;2023-05-13T00:59:11;13.10;;;7.63;;
53775;SDS011;44276;49.534;6.378;2023-05-13T01:01:42;16.20;;;8.95;;
53775;SDS011;44276;49.534;6.378;2023-05-13T01:04:23;19.70;;;8.48;;
53775;SDS011;44276;49.534;6.378;2023-05-13T01:07:05;17.30;;;9.48;;
53775;SDS011;44276;49.534;6.378;2023-05-13T01:09:48;21.27;;;10.30;;
53775;SDS011;44276;49.534;6.378;2023-05-13T01:12:25;21.48;;;10.13;;
53775;SDS011;44276;49.534;6.378;2023-05-13T01:15:03;17.85;;;11.10;;
53775;SDS011;44276;49.534;6.378;2023-05-13T01:17:35;19.23;;;11.68;;
53775;SDS011;44276;49.534;6.378;2023-05-13T01:20:10;24.17;;;12.18;;
53775;SDS011;44276;49.534;6.378;2023-05-13T01:22:40;19.15;;;11.38;;
53775;SDS011;44276;49.534;6.378;2023-05-13T01:25:08;23.38;;;12.52;;
53775;SDS011;44276;49.534;6.378;2023-05-13T01:27:36;25.88;;;11.80;;
53775;SDS011;44276;49.534;6.378;2023-05-13T01:30:05;22.15;;;10.95;;
53775;SDS011;44276;49.534;6.378;2023-05-13T01:32:36;22.13;;;11.80;;
53775;SDS011;44276;49.534;6.378;2023-05-13T01:35:05;21.92;;;11.65;;
53775;SDS011;44276;49.534;6.378;2023-05-13T01:37:37;21.10;;;11.82;;
53775;SDS011;44276;49.534;6.378;2023-05-13T01:40:08;19.77;;;12.00;;
53775;SDS011;44276;49.534;6.378;2023-05-13T01:42:56;24.42;;;13.57;;
53775;SDS011;44276;49.534;6.378;2023-05-13T01:45:26;21.70;;;11.75;;
53775;SDS011;44276;49.534;6.378;2023-05-13T01:47:55;21.23;;;10.77;;
53775;SDS011;44276;49.534;6.378;2023-05-13T01:50:23;17.50;;;11.15;;
53775;SDS011;44276;49.534;6.378;2023-05-13T01:52:53;22.33;;;12.15;;
53775;SDS011;44276;49.534;6.378;2023-05-13T01:55:22;20.92;;;12.20;;
53775;SDS011;44276;49.534;6.378;2023-05-13T01:57:50;23.95;;;12.02;;
53775;SDS011;44276;49.534;6.378;2023-05-13T02:00:18;19.02;;;12.23;;
53775;SDS011;44276;49.534;6.378;2023-05-13T02:02:47;19.42;;;11.25;;
53775;SDS011;44276;49.534;6.378;2023-05-13T02:05:15;21.13;;;11.43;;
53775;SDS011;44276;49.534;6.378;2023-05-13T02:07:44;21.13;;;12.93;;
53775;SDS011;44276;49.534;6.378;2023-05-13T02:10:13;24.60;;;14.60;;
53775;SDS011;44276;49.534;6.378;2023-05-13T02:12:42;20.45;;;12.57;;
53775;SDS011;44276;49.534;6.378;2023-05-13T02:15:10;41.88;;;13.85;;
53775;SDS011;44276;49.534;6.378;2023-05-13T02:17:39;21.73;;;12.75;;
53775;SDS011;44276;49.534;6.378;2023-05-13T02:20:08;19.17;;;11.77;;
53775;SDS011;44276;49.534;6.378;2023-05-13T02:22:37;21.25;;;12.30;;
53775;SDS011;44276;49.534;6.378;2023-05-13T02:25:05;19.85;;;12.68;;
53775;SDS011;44276;49.534;6.378;2023-05-13T02:27:36;21.25;;;12.02;;
53775;SDS011;44276;49.534;6.378;2023-05-13T02:30:05;23.20;;;12.38;;
53775;SDS011;44276;49.534;6.378;2023-05-13T02:32:34;27.85;;;14.02;;
53775;SDS011;44276;49.534;6.378;2023-05-13T02:35:02;23.75;;;13.13;;
53775;SDS011;44276;49.534;6.378;2023-05-13T02:37:31;27.55;;;14.10;;
53775;SDS011;44276;49.534;6.378;2023-05-13T02:39:59;34.70;;;15.55;;
53775;SDS011;44276;49.534;6.378;2023-05-13T02:42:28;26.33;;;14.40;;
53775;SDS011;44276;49.534;6.378;2023-05-13T02:44:57;29.35;;;12.95;;
53775;SDS011;44276;49.534;6.378;2023-05-13T02:47:26;23.88;;;12.68;;
53775;SDS011;44276;49.534;6.378;2023-05-13T02:49:54;23.95;;;12.82;;
53775;SDS011;44276;49.534;6.378;2023-05-13T02:52:23;26.13;;;13.93;;
53775;SDS011;44276;49.534;6.378;2023-05-13T02:54:51;32.42;;;15.02;;
53775;SDS011;44276;49.534;6.378;2023-05-13T02:57:19;33.35;;;16.25;;
53775;SDS011;44276;49.534;6.378;2023-05-13T02:59:47;29.88;;;16.95;;
53775;SDS011;44276;49.534;6.378;2023-05-13T03:02:17;35.08;;;17.38;;
53775;SDS011;44276;49.534;6.378;2023-05-13T03:04:46;33.88;;;17.50;;
53775;SDS011;44276;49.534;6.378;2023-05-13T03:07:14;34.40;;;18.17;;
53775;SDS011;44276;49.534;6.378;2023-05-13T03:09:42;40.50;;;18.70;;
53775;SDS011;44276;49.534;6.378;2023-05-13T03:12:10;37.38;;;18.08;;
53775;SDS011;44276;49.534;6.378;2023-05-13T03:14:38;34.20;;;17.38;;
53775;SDS011;44276;49.534;6.378;2023-05-13T03:17:08;44.10;;;19.75;;
53775;SDS011;44276;49.534;6.378;2023-05-13T03:19:38;36.90;;;17.77;;
53775;SDS011;44276;49.534;6.378;2023-05-13T03:22:06;44.30;;;19.08;;
53775;SDS011;44276;49.534;6.378;2023-05-13T03:24:34;41.70;;;19.38;;
53775;SDS011;44276;49.534;6.378;2023-05-13T03:27:02;44.47;;;19.83;;
53775;SDS011;44276;49.534;6.378;2023-05-13T03:29:31;38.35;;;18.88;;
53775;SDS011;44276;49.534;6.378;2023-05-13T03:31:59;44.85;;;19.92;;
53775;SDS011;44276;49.534;6.378;2023-05-13T03:34:27;37.50;;;19.60;;
53775;SDS011;44276;49.534;6.378;2023-05-13T03:36:57;40.10;;;20.38;;
53775;SDS011;44276;49.534;6.378;2023-05-13T03:39:25;39.15;;;17.10;;
53775;SDS011;44276;49.534;6.378;2023-05-13T03:41:53;37.53;;;17.35;;
53775;SDS011;44276;49.534;6.378;2023-05-13T03:44:22;34.10;;;17.05;;
53775;SDS011;44276;49.534;6.378;2023-05-13T03:46:50;32.60;;;16.02;;
53775;SDS011;44276;49.534;6.378;2023-05-13T03:49:18;36.25;;;16.35;;
53775;SDS011;44276;49.534;6.378;2023-05-13T03:51:47;37.83;;;16.45;;
53775;SDS011;44276;49.534;6.378;2023-05-13T03:54:16;36.88;;;16.60;;
53775;SDS011;44276;49.534;6.378;2023-05-13T03:56:44;36.55;;;16.58;;
53775;SDS011;44276;49.534;6.378;2023-05-13T03:59:13;34.00;;;17.63;;
53775;SDS011;44276;49.534;6.378;2023-05-13T04:01:41;36.97;;;17.83;;
53775;SDS011;44276;49.534;6.378;2023-05-13T04:04:09;39.75;;;17.70;;
53775;SDS011;44276;49.534;6.378;2023-05-13T04:06:37;42.85;;;19.52;;
53775;SDS011;44276;49.534;6.378;2023-05-13T04:09:05;44.90;;;21.63;;
53775;SDS011;44276;49.534;6.378;2023-05-13T04:11:35;47.65;;;20.70;;
53775;SDS011;44276;49.534;6.378;2023-05-13T04:14:03;51.97;;;22.58;;
53775;SDS011;44276;49.534;6.378;2023-05-13T04:16:31;42.75;;;21.83;;
53775;SDS011;44276;49.534;6.378;2023-05-13T04:18:59;56.35;;;22.23;;
53775;SDS011;44276;49.534;6.378;2023-05-13T04:21:28;49.00;;;22.30;;
53775;SDS011;44276;49.534;6.378;2023-05-13T04:23:56;49.58;;;21.98;;
53775;SDS011;44276;49.534;6.378;2023-05-13T04:26:24;47.70;;;21.80;;
53775;SDS011;44276;49.534;6.378;2023-05-13T04:28:54;44.70;;;22.10;;
53775;SDS011;44276;49.534;6.378;2023-05-13T04:31:22;44.88;;;21.42;;
53775;SDS011;44276;49.534;6.378;2023-05-13T04:33:50;51.42;;;22.40;;
53775;SDS011;44276;49.534;6.378;2023-05-13T04:36:18;44.30;;;22.38;;
53775;SDS011;44276;49.534;6.378;2023-05-13T04:38:46;43.78;;;20.95;;
53775;SDS011;44276;49.534;6.378;2023-05-13T04:41:14;40.67;;;21.13;;
53775;SDS011;44276;49.534;6.378;2023-05-13T04:43:42;45.08;;;21.58;;
53775;SDS011;44276;49.534;6.378;2023-05-13T04:46:12;39.35;;;20.42;;
53775;SDS011;44276;49.534;6.378;2023-05-13T04:48:40;43.50;;;20.52;;
53775;SDS011;44276;49.534;6.378;2023-05-13T04:51:08;35.70;;;18.90;;
53775;SDS011;44276;49.534;6.378;2023-05-13T04:53:37;36.55;;;19.00;;
53775;SDS011;44276;49.534;6.378;2023-05-13T04:56:05;35.58;;;18.13;;
53775;SDS011;44276;49.534;6.378;2023-05-13T04:58:34;35.58;;;19.55;;
53775;SDS011;44276;49.534;6.378;2023-05-13T05:01:02;39.45;;;19.20;;
53775;SDS011;44276;49.534;6.378;2023-05-13T05:03:32;39.25;;;19.02;;
53775;SDS011;44276;49.534;6.378;2023-05-13T05:06:00;42.25;;;19.75;;
53775;SDS011;44276;49.534;6.378;2023-05-13T05:08:28;32.40;;;17.77;;
53775;SDS011;44276;49.534;6.378;2023-05-13T05:10:57;33.53;;;18.80;;
53775;SDS011;44276;49.534;6.378;2023-05-13T05:13:26;32.00;;;17.73;;
53775;SDS011;44276;49.534;6.378;2023-05-13T05:15:54;35.58;;;19.73;;
53775;SDS011;44276;49.534;6.378;2023-05-13T05:18:23;31.30;;;18.65;;
53775;SDS011;44276;49.534;6.378;2023-05-13T05:20:52;30.80;;;17.23;;
53775;SDS011;44276;49.534;6.378;2023-05-13T05:23:20;26.88;;;14.93;;
53775;SDS011;44276;49.534;6.378;2023-05-13T05:25:48;20.92;;;13.63;;
53775;SDS011;44276;49.534;6.378;2023-05-13T05:28:36;17.55;;;12.65;;
53775;SDS011;44276;49.534;6.378;2023-05-13T05:31:05;16.98;;;10.35;;
53775;SDS011;44276;49.534;6.378;2023-05-13T05:33:34;14.65;;;8.55;;
53775;SDS011;44276;49.534;6.378;2023-05-13T05:36:05;12.45;;;7.65;;
53775;SDS011;44276;49.534;6.378;2023-05-13T05:38:33;8.65;;;6.38;;
53775;SDS011;44276;49.534;6.378;2023-05-13T05:41:02;8.48;;;6.57;;
53775;SDS011;44276;49.534;6.378;2023-05-13T05:43:30;5.60;;;4.72;;
53775;SDS011;44276;49.534;6.378;2023-05-13T05:45:58;4.25;;;3.55;;
53775;SDS011;44276;49.534;6.378;2023-05-13T05:48:27;7.15;;;4.03;;
53775;SDS011;44276;49.534;6.378;2023-05-13T05:50:56;4.75;;;3.60;;
53775;SDS011;44276;49.534;6.378;2023-05-13T05:53:25;4.00;;;3.10;;
53775;SDS011;44276;49.534;6.378;2023-05-13T05:55:53;4.63;;;3.78;;
53775;SDS011;44276;49.534;6.378;2023-05-13T05:58:21;7.57;;;3.15;;
53775;SDS011;44276;49.534;6.378;2023-05-13T06:00:52;3.88;;;2.85;;
53775;SDS011;44276;49.534;6.378;2023-05-13T06:03:22;4.05;;;2.88;;
53775;SDS011;44276;49.534;6.378;2023-05-13T06:05:50;3.95;;;2.13;;
53775;SDS011;44276;49.534;6.378;2023-05-13T06:08:18;3.03;;;2.45;;
53775;SDS011;44276;49.534;6.378;2023-05-13T06:10:49;3.63;;;2.25;;
53775;SDS011;44276;49.534;6.378;2023-05-13T06:13:17;4.13;;;2.03;;
53775;SDS011;44276;49.534;6.378;2023-05-13T06:15:45;3.05;;;1.60;;
53775;SDS011;44276;49.534;6.378;2023-05-13T06:18:13;2.92;;;2.60;;
53775;SDS011;44276;49.534;6.378;2023-05-13T06:20:41;7.03;;;2.10;;
53775;SDS011;44276;49.534;6.378;2023-05-13T06:23:09;3.63;;;2.30;;
53775;SDS011;44276;49.534;6.378;2023-05-13T06:25:39;4.32;;;2.72;;
53775;SDS011;44276;49.534;6.378;2023-05-13T06:28:09;3.08;;;1.90;;
53775;SDS011;44276;49.534;6.378;2023-05-13T06:30:38;5.68;;;2.20;;
53775;SDS011;44276;49.534;6.378;2023-05-13T06:33:06;4.13;;;2.30;;
53775;SDS011;44276;49.534;6.378;2023-05-13T06:35:35;2.92;;;2.03;;
53775;SDS011;44276;49.534;6.378;2023-05-13T06:38:04;3.60;;;2.92;;
53775;SDS011;44276;49.534;6.378;2023-05-13T06:40:32;6.55;;;3.50;;
53775;SDS011;44276;49.534;6.378;2023-05-13T06:43:00;3.65;;;1.75;;
53775;SDS011;44276;49.534;6.378;2023-05-13T06:45:29;2.58;;;1.65;;
53775;SDS011;44276;49.534;6.378;2023-05-13T06:47:57;3.20;;;1.70;;
53775;SDS011;44276;49.534;6.378;2023-05-13T06:50:25;7.40;;;2.30;;
53775;SDS011;44276;49.534;6.378;2023-05-13T06:52:53;2.65;;;1.50;;
53775;SDS011;44276;49.534;6.378;2023-05-13T06:55:22;4.07;;;2.20;;
53775;SDS011;44276;49.534;6.378;2023-05-13T06:57:50;2.78;;;1.95;;
53775;SDS011;44276;49.534;6.378;2023-05-13T07:00:18;3.10;;;1.90;;
53775;SDS011;44276;49.534;6.378;2023-05-13T07:02:48;2.03;;;1.45;;
53775;SDS011;44276;49.534;6.378;2023-05-13T07:05:17;5.70;;;2.65;;
53775;SDS011;44276;49.534;6.378;2023-05-13T07:07:45;3.65;;;2.40;;
53775;SDS011;44276;49.534;6.378;2023-05-13T07:10:13;2.35;;;2.15;;
53775;SDS011;44276;49.534;6.378;2023-05-13T07:12:41;6.75;;;1.98;;
53775;SDS011;44276;49.534;6.378;2023-05-13T07:15:09;2.97;;;1.70;;
53775;SDS011;44276;49.534;6.378;2023-05-13T07:17:38;3.10;;;2.00;;
53775;SDS011;44276;49.534;6.378;2023-05-13T07:20:08;4.30;;;1.98;;
53775;SDS011;44276;49.534;6.378;2023-05-13T07:22:38;3.90;;;1.88;;
53775;SDS011;44276;49.534;6.378;2023-05-13T07:25:06;3.97;;;1.83;;
53775;SDS011;44276;49.534;6.378;2023-05-13T07:27:36;3.97;;;2.03;;
53775;SDS011;44276;49.534;6.378;2023-05-13T07:30:04;4.00;;;1.58;;
53775;SDS011;44276;49.534;6.378;2023-05-13T07:32:34;3.58;;;1.65;;
53775;SDS011;44276;49.534;6.378;2023-05-13T07:35:02;2.10;;;1.55;;
53775;SDS011;44276;49.534;6.378;2023-05-13T07:37:33;3.55;;;1.70;;
53775;SDS011;44276;49.534;6.378;2023-05-13T07:40:02;1.85;;;1.25;;
53775;SDS011;44276;49.534;6.378;2023-05-13T07:42:32;2.28;;;1.20;;
53775;SDS011;44276;49.534;6.378;2023-05-13T07:45:00;2.55;;;1.23;;
53775;SDS011;44276;49.534;6.378;2023-05-13T07:47:29;2.10;;;1.42;;
53775;SDS011;44276;49.534;6.378;2023-05-13T07:49:58;1.92;;;1.48;;
53775;SDS011;44276;49.534;6.378;2023-05-13T07:52:27;2.63;;;1.35;;
53775;SDS011;44276;49.534;6.378;2023-05-13T07:54:56;3.40;;;1.05;;
53775;SDS011;44276;49.534;6.378;2023-05-13T07:57:24;1.65;;;1.45;;
53775;SDS011;44276;49.534;6.378;2023-05-13T07:59:52;2.72;;;1.80;;
53775;SDS011;44276;49.534;6.378;2023-05-13T08:02:20;2.95;;;1.33;;
53775;SDS011;44276;49.534;6.378;2023-05-13T08:04:49;2.08;;;1.52;;
53775;SDS011;44276;49.534;6.378;2023-05-13T08:07:18;2.67;;;1.75;;
53775;SDS011;44276;49.534;6.378;2023-05-13T08:09:46;2.30;;;1.30;;
53775;SDS011;44276;49.534;6.378;2023-05-13T08:12:15;1.77;;;1.35;;
53775;SDS011;44276;49.534;6.378;2023-05-13T08:14:43;3.60;;;1.40;;
53775;SDS011;44276;49.534;6.378;2023-05-13T08:17:14;2.60;;;1.63;;
53775;SDS011;44276;49.534;6.378;2023-05-13T08:19:43;2.33;;;2.13;;
53775;SDS011;44276;49.534;6.378;2023-05-13T08:22:11;1.80;;;1.17;;
53775;SDS011;44276;49.534;6.378;2023-05-13T08:24:39;3.03;;;1.48;;
53775;SDS011;44276;49.534;6.378;2023-05-13T08:27:08;2.28;;;1.35;;
53775;SDS011;44276;49.534;6.378;2023-05-13T08:29:39;2.25;;;1.50;;
53775;SDS011;44276;49.534;6.378;2023-05-13T08:32:07;6.45;;;1.52;;
53775;SDS011;44276;49.534;6.378;2023-05-13T08:34:36;2.22;;;1.35;;
53775;SDS011;44276;49.534;6.378;2023-05-13T08:37:05;1.77;;;0.93;;
53775;SDS011;44276;49.534;6.378;2023-05-13T08:39:33;2.13;;;1.27;;
53775;SDS011;44276;49.534;6.378;2023-05-13T08:42:02;3.75;;;1.27;;
53775;SDS011;44276;49.534;6.378;2023-05-13T08:44:31;4.25;;;1.20;;
53775;SDS011;44276;49.534;6.378;2023-05-13T08:47:07;5.85;;;1.75;;
53775;SDS011;44276;49.534;6.378;2023-05-13T08:49:48;6.45;;;2.22;;
53775;SDS011;44276;49.534;6.378;2023-05-13T08:52:18;4.88;;;1.80;;
53775;SDS011;44276;49.534;6.378;2023-05-13T08:54:49;8.82;;;2.10;;
53775;SDS011;44276;49.534;6.378;2023-05-13T08:57:17;3.20;;;1.30;;
53775;SDS011;44276;49.534;6.378;2023-05-13T08:59:45;1.73;;;1.10;;
53775;SDS011;44276;49.534;6.378;2023-05-13T09:02:15;3.10;;;1.38;;
53775;SDS011;44276;49.534;6.378;2023-05-13T09:04:43;2.45;;;1.20;;
53775;SDS011;44276;49.534;6.378;2023-05-13T09:07:18;2.38;;;1.33;;
53775;SDS011;44276;49.534;6.378;2023-05-13T09:09:46;2.97;;;1.27;;
53775;SDS011;44276;49.534;6.378;2023-05-13T09:15:11;1.27;;;0.97;;
53775;SDS011;44276;49.534;6.378;2023-05-13T09:17:42;1.92;;;1.20;;
53775;SDS011;44276;49.534;6.378;2023-05-13T09:20:15;1.95;;;1.20;;
53775;SDS011;44276;49.534;6.378;2023-05-13T09:22:44;5.32;;;1.42;;
53775;SDS011;44276;49.534;6.378;2023-05-13T09:25:14;1.40;;;1.20;;
53775;SDS011;44276;49.534;6.378;2023-05-13T09:27:45;1.67;;;0.82;;
53775;SDS011;44276;49.534;6.378;2023-05-13T09:30:15;8.15;;;2.08;;
53775;SDS011;44276;49.534;6.378;2023-05-13T09:32:45;2.50;;;1.38;;
53775;SDS011;44276;49.534;6.378;2023-05-13T09:35:35;4.85;;;1.40;;
53775;SDS011;44276;49.534;6.378;2023-05-13T09:38:12;1.50;;;1.40;;
53775;SDS011;44276;49.534;6.378;2023-05-13T09:40:49;11.57;;;1.60;;
53775;SDS011;44276;49.534;6.378;2023-05-13T09:43:19;3.70;;;1.08;;
53775;SDS011;44276;49.534;6.378;2023-05-13T09:45:51;2.58;;;1.15;;
53775;SDS011;44276;49.534;6.378;2023-05-13T09:48:23;2.20;;;1.00;;
53775;SDS011;44276;49.534;6.378;2023-05-13T09:50:52;3.40;;;1.27;;
53775;SDS011;44276;49.534;6.378;2023-05-13T09:53:23;5.70;;;1.58;;
53775;SDS011;44276;49.534;6.378;2023-05-13T09:55:52;2.97;;;1.30;;
53775;SDS011;44276;49.534;6.378;2023-05-13T09:58:22;3.00;;;1.45;;
53775;SDS011;44276;49.534;6.378;2023-05-13T10:00:53;4.50;;;2.00;;
53775;SDS011;44276;49.534;6.378;2023-05-13T10:03:25;2.65;;;1.60;;
53775;SDS011;44276;49.534;6.378;2023-05-13T10:05:58;1.25;;;1.10;;
53775;SDS011;44276;49.534;6.378;2023-05-13T10:08:30;3.22;;;1.60;;
53775;SDS011;44276;49.534;6.378;2023-05-13T10:10:59;4.90;;;1.60;;
53775;SDS011;44276;49.534;6.378;2023-05-13T10:13:27;2.33;;;1.50;;
53775;SDS011;44276;49.534;6.378;2023-05-13T10:15:58;3.05;;;1.67;;
53775;SDS011;44276;49.534;6.378;2023-05-13T10:18:34;1.65;;;1.13;;
53775;SDS011;44276;49.534;6.378;2023-05-13T10:21:04;2.90;;;1.25;;
53775;SDS011;44276;49.534;6.378;2023-05-13T10:23:48;3.40;;;1.35;;
53775;SDS011;44276;49.534;6.378;2023-05-13T10:26:18;4.00;;;1.48;;
53775;SDS011;44276;49.534;6.378;2023-05-13T10:28:47;5.55;;;2.72;;
53775;SDS011;44276;49.534;6.378;2023-05-13T10:31:19;3.15;;;1.65;;
53775;SDS011;44276;49.534;6.378;2023-05-13T10:33:49;4.88;;;1.95;;
53775;SDS011;44276;49.534;6.378;2023-05-13T10:36:41;2.08;;;1.70;;
53775;SDS011;44276;49.534;6.378;2023-05-13T10:39:37;3.75;;;1.67;;
53775;SDS011;44276;49.534;6.378;2023-05-13T10:42:44;11.23;;;1.67;;
53775;SDS011;44276;49.534;6.378;2023-05-13T10:45:24;2.30;;;1.48;;
53775;SDS011;44276;49.534;6.378;2023-05-13T10:47:53;1.85;;;1.35;;
53775;SDS011;44276;49.534;6.378;2023-05-13T10:50:24;5.68;;;2.03;;
53775;SDS011;44276;49.534;6.378;2023-05-13T10:52:56;5.72;;;1.75;;
53775;SDS011;44276;49.534;6.378;2023-05-13T10:55:25;2.92;;;1.90;;
53775;SDS011;44276;49.534;6.378;2023-05-13T10:58:06;2.72;;;1.17;;
53775;SDS011;44276;49.534;6.378;2023-05-13T11:00:37;3.20;;;1.58;;
53775;SDS011;44276;49.534;6.378;2023-05-13T11:03:08;3.55;;;1.38;;
53775;SDS011;44276;49.534;6.378;2023-05-13T11:05:47;2.80;;;1.55;;
53775;SDS011;44276;49.534;6.378;2023-05-13T11:08:36;2.78;;;2.13;;
53775;SDS011;44276;49.534;6.378;2023-05-13T11:11:21;2.35;;;1.48;;
53775;SDS011;44276;49.534;6.378;2023-05-13T11:14:02;1.85;;;1.33;;
53775;SDS011;44276;49.534;6.378;2023-05-13T11:16:35;4.05;;;1.70;;
53775;SDS011;44276;49.534;6.378;2023-05-13T11:19:07;6.97;;;1.85;;
53775;SDS011;44276;49.534;6.378;2023-05-13T11:21:46;3.97;;;1.95;;
53775;SDS011;44276;49.534;6.378;2023-05-13T11:24:18;3.95;;;1.40;;
53775;SDS011;44276;49.534;6.378;2023-05-13T11:26:48;2.42;;;1.48;;
53775;SDS011;44276;49.534;6.378;2023-05-13T11:29:28;6.38;;;3.72;;
53775;SDS011;44276;49.534;6.378;2023-05-13T11:31:58;3.22;;;1.52;;
53775;SDS011;44276;49.534;6.378;2023-05-13T11:34:28;11.05;;;2.70;;
53775;SDS011;44276;49.534;6.378;2023-05-13T11:37:05;2.33;;;1.35;;
53775;SDS011;44276;49.534;6.378;2023-05-13T11:39:37;3.33;;;1.10;;
53775;SDS011;44276;49.534;6.378;2023-05-13T11:42:07;2.40;;;1.63;;
53775;SDS011;44276;49.534;6.378;2023-05-13T11:44:43;5.22;;;1.83;;
53775;SDS011;44276;49.534;6.378;2023-05-13T11:47:13;4.85;;;2.05;;
53775;SDS011;44276;49.534;6.378;2023-05-13T11:49:41;7.00;;;3.15;;
53775;SDS011;44276;49.534;6.378;2023-05-13T11:52:13;2.92;;;1.27;;
53775;SDS011;44276;49.534;6.378;2023-05-13T11:54:44;2.17;;;1.52;;
53775;SDS011;44276;49.534;6.378;2023-05-13T11:57:19;4.70;;;2.95;;
53775;SDS011;44276;49.534;6.378;2023-05-13T11:59:49;5.80;;;2.47;;
53775;SDS011;44276;49.534;6.378;2023-05-13T12:02:23;6.97;;;2.90;;
53775;SDS011;44276;49.534;6.378;2023-05-13T12:04:53;2.28;;;1.40;;
53775;SDS011;44276;49.534;6.378;2023-05-13T12:07:27;5.18;;;1.58;;
53775;SDS011;44276;49.534;6.378;2023-05-13T12:09:55;4.93;;;1.27;;
53775;SDS011;44276;49.534;6.378;2023-05-13T12:12:26;3.60;;;2.15;;
53775;SDS011;44276;49.534;6.378;2023-05-13T12:14:57;1.88;;;1.10;;
53775;SDS011;44276;49.534;6.378;2023-05-13T12:17:29;4.22;;;1.52;;
53775;SDS011;44276;49.534;6.378;2023-05-13T12:20:09;3.72;;;2.22;;
53775;SDS011;44276;49.534;6.378;2023-05-13T12:22:50;2.22;;;1.40;;
53775;SDS011;44276;49.534;6.378;2023-05-13T12:25:35;2.38;;;1.60;;
53775;SDS011;44276;49.534;6.378;2023-05-13T12:28:06;2.50;;;1.38;;
53775;SDS011;44276;49.534;6.378;2023-05-13T12:30:42;1.85;;;1.33;;
53775;SDS011;44276;49.534;6.378;2023-05-13T12:33:17;1.40;;;1.30;;
53775;SDS011;44276;49.534;6.378;2023-05-13T12:35:47;3.80;;;1.60;;
53775;SDS011;44276;49.534;6.378;2023-05-13T12:38:20;4.32;;;1.23;;
53775;SDS011;44276;49.534;6.378;2023-05-13T12:40:50;5.05;;;1.10;;
53775;SDS011;44276;49.534;6.378;2023-05-13T12:43:20;2.35;;;1.38;;
53775;SDS011;44276;49.534;6.378;2023-05-13T12:45:51;2.83;;;1.65;;
53775;SDS011;44276;49.534;6.378;2023-05-13T12:48:23;2.38;;;1.70;;
53775;SDS011;44276;49.534;6.378;2023-05-13T12:50:52;2.65;;;1.42;;
53775;SDS011;44276;49.534;6.378;2023-05-13T12:53:23;3.75;;;1.33;;
53775;SDS011;44276;49.534;6.378;2023-05-13T12:55:51;3.88;;;1.52;;
53775;SDS011;44276;49.534;6.378;2023-05-13T12:58:19;3.33;;;1.30;;
53775;SDS011;44276;49.534;6.378;2023-05-13T13:00:47;2.05;;;1.48;;
53775;SDS011;44276;49.534;6.378;2023-05-13T13:03:16;3.20;;;1.73;;
53775;SDS011;44276;49.534;6.378;2023-05-13T13:05:47;1.80;;;1.35;;
53775;SDS011;44276;49.534;6.378;2023-05-13T13:08:16;2.60;;;1.55;;
53775;SDS011;44276;49.534;6.378;2023-05-13T13:10:46;2.92;;;1.17;;
53775;SDS011;44276;49.534;6.378;2023-05-13T13:13:14;3.78;;;1.33;;
53775;SDS011;44276;49.534;6.378;2023-05-13T13:15:42;1.42;;;1.00;;
53775;SDS011;44276;49.534;6.378;2023-05-13T13:18:10;2.88;;;1.20;;
53775;SDS011;44276;49.534;6.378;2023-05-13T13:20:38;3.90;;;1.30;;
53775;SDS011;44276;49.534;6.378;2023-05-13T13:23:07;5.88;;;1.63;;
53775;SDS011;44276;49.534;6.378;2023-05-13T13:25:36;2.55;;;1.02;;
53775;SDS011;44276;49.534;6.378;2023-05-13T13:28:05;2.33;;;1.45;;
53775;SDS011;44276;49.534;6.378;2023-05-13T13:30:34;1.58;;;1.17;;
53775;SDS011;44276;49.534;6.378;2023-05-13T13:33:03;1.38;;;1.27;;
53775;SDS011;44276;49.534;6.378;2023-05-13T13:35:31;3.15;;;1.17;;
53775;SDS011;44276;49.534;6.378;2023-05-13T13:38:00;3.72;;;1.90;;
53775;SDS011;44276;49.534;6.378;2023-05-13T13:40:29;4.07;;;1.20;;
53775;SDS011;44276;49.534;6.378;2023-05-13T13:42:57;3.03;;;0.73;;
53775;SDS011;44276;49.534;6.378;2023-05-13T13:45:27;2.83;;;1.33;;
53775;SDS011;44276;49.534;6.378;2023-05-13T13:47:55;1.83;;;1.27;;
53775;SDS011;44276;49.534;6.378;2023-05-13T13:50:26;1.85;;;1.33;;
53775;SDS011;44276;49.534;6.378;2023-05-13T13:52:54;2.92;;;1.20;;
53775;SDS011;44276;49.534;6.378;2023-05-13T13:55:22;3.13;;;1.52;;
53775;SDS011;44276;49.534;6.378;2023-05-13T13:57:51;2.38;;;1.50;;
53775;SDS011;44276;49.534;6.378;2023-05-13T14:00:19;6.45;;;1.13;;
53775;SDS011;44276;49.534;6.378;2023-05-13T14:02:49;3.45;;;1.23;;
53775;SDS011;44276;49.534;6.378;2023-05-13T14:05:18;3.97;;;1.55;;
53775;SDS011;44276;49.534;6.378;2023-05-13T14:07:48;3.78;;;1.30;;
53775;SDS011;44276;49.534;6.378;2023-05-13T14:10:19;1.98;;;1.38;;
53775;SDS011;44276;49.534;6.378;2023-05-13T14:12:48;2.47;;;1.58;;
53775;SDS011;44276;49.534;6.378;2023-05-13T14:15:16;4.82;;;1.38;;
53775;SDS011;44276;49.534;6.378;2023-05-13T14:17:44;2.03;;;1.10;;
53775;SDS011;44276;49.534;6.378;2023-05-13T14:20:15;1.45;;;0.90;;
53775;SDS011;44276;49.534;6.378;2023-05-13T14:22:44;1.25;;;1.08;;
53775;SDS011;44276;49.534;6.378;2023-05-13T14:25:14;1.80;;;1.30;;
53775;SDS011;44276;49.534;6.378;2023-05-13T14:27:43;1.70;;;1.40;;
53775;SDS011;44276;49.534;6.378;2023-05-13T14:30:18;2.47;;;1.23;;
53775;SDS011;44276;49.534;6.378;2023-05-13T14:32:48;3.42;;;1.23;;
53775;SDS011;44276;49.534;6.378;2023-05-13T14:35:18;3.53;;;1.42;;
53775;SDS011;44276;49.534;6.378;2023-05-13T14:37:53;1.95;;;1.05;;
53775;SDS011;44276;49.534;6.378;2023-05-13T14:40:27;4.82;;;1.10;;
53775;SDS011;44276;49.534;6.378;2023-05-13T14:42:56;4.47;;;1.67;;
53775;SDS011;44276;49.534;6.378;2023-05-13T14:45:36;3.25;;;1.30;;
53775;SDS011;44276;49.534;6.378;2023-05-13T14:48:11;8.35;;;1.38;;
53775;SDS011;44276;49.534;6.378;2023-05-13T14:50:48;2.47;;;1.35;;
53775;SDS011;44276;49.534;6.378;2023-05-13T14:53:22;3.08;;;0.93;;
53775;SDS011;44276;49.534;6.378;2023-05-13T14:55:56;1.88;;;0.98;;
53775;SDS011;44276;49.534;6.378;2023-05-13T14:58:26;4.72;;;1.10;;
53775;SDS011;44276;49.534;6.378;2023-05-13T15:00:57;3.35;;;1.67;;